Time;durP1;ratioP1;P1;durP2;ratioP2;P2;SDS_P1;SDS_P2;PMS_P1;PMS_P2;Temp;Humidity;BMP_temperature;BMP_pressure;BME280_temperature;BME280_humidity;BME280_pressure;Samples;Min_cycle;Max_cycle;Signal;HPM_P1;HPM_P2
2023/07/03 00:01:15;;;;;;;14.95;5.72;;;16.10;99.90;;;;;;4963669;28;20051;-48
2023/07/03 00:03:40;;;;;;;16.15;6.13;;;16.10;99.90;;;;;;4963916;28;20419;-51
2023/07/03 00:06:06;;;;;;;23.17;6.53;;;16.10;99.90;;;;;;4962698;28;20323;-54
2023/07/03 00:08:31;;;;;;;15.93;5.65;;;16.10;99.90;;;;;;4964077;28;20434;-57
2023/07/03 00:11:01;;;;;;;16.67;5.93;;;16.20;99.90;;;;;;4964012;28;20045;-59
2023/07/03 00:13:27;;;;;;;16.23;5.57;;;16.20;99.90;;;;;;4962903;28;20055;-52
2023/07/03 00:16:00;;;;;;;13.60;5.32;;;16.10;99.90;;;;;;4963317;28;20412;-48
2023/07/03 00:18:28;;;;;;;17.60;5.53;;;16.00;99.90;;;;;;4963289;28;20043;-53
2023/07/03 00:20:54;;;;;;;14.25;5.13;;;15.90;99.90;;;;;;4962826;28;20074;-52
2023/07/03 00:23:21;;;;;;;14.50;5.07;;;15.90;99.90;;;;;;4962692;28;20422;-58
2023/07/03 00:25:48;;;;;;;15.88;5.70;;;15.90;99.90;;;;;;4972063;28;20053;-60
2023/07/03 00:28:13;;;;;;;15.23;5.53;;;15.80;99.90;;;;;;4982529;28;20049;-51
2023/07/03 00:30:39;;;;;;;19.98;5.60;;;15.80;99.90;;;;;;4981821;28;20046;-54
2023/07/03 00:33:05;;;;;;;15.43;5.78;;;15.70;99.90;;;;;;4982986;28;20390;-51
2023/07/03 00:35:30;;;;;;;12.10;5.13;;;15.80;99.90;;;;;;4983116;28;20440;-55
2023/07/03 00:37:56;;;;;;;15.93;5.07;;;15.70;99.90;;;;;;4982121;28;20073;-59
2023/07/03 00:40:22;;;;;;;18.70;5.40;;;15.80;99.90;;;;;;4982630;28;20051;-52
2023/07/03 00:42:51;;;;;;;12.57;4.65;;;15.80;99.90;;;;;;4982746;28;20034;-55
2023/07/03 00:45:17;;;;;;;18.52;5.50;;;15.80;99.90;;;;;;4981459;28;20051;-56
2023/07/03 00:47:42;;;;;;;13.82;5.13;;;15.70;99.90;;;;;;4982668;28;20120;-55
2023/07/03 00:50:09;;;;;;;14.07;5.28;;;15.70;99.90;;;;;;4982194;28;20046;-52
2023/07/03 00:52:35;;;;;;;13.18;5.10;;;15.70;99.90;;;;;;4982353;28;20045;-51
2023/07/03 00:55:01;;;;;;;16.20;5.75;;;15.70;99.90;;;;;;4982039;28;20451;-58
2023/07/03 00:57:28;;;;;;;13.95;5.55;;;15.70;99.90;;;;;;4982492;28;20042;-57
2023/07/03 00:59:53;;;;;;;13.48;5.30;;;15.70;99.90;;;;;;4981477;28;20046;-52
2023/07/03 01:02:29;;;;;;;16.42;5.63;;;15.60;99.90;;;;;;4981630;28;20046;-54
2023/07/03 01:05:03;;;;;;;17.13;5.35;;;15.60;99.90;;;;;;4982201;28;20051;-54
2023/07/03 01:07:31;;;;;;;;;;;15.70;99.90;;;;;;4982724;28;20045;-58
2023/07/03 01:10:09;;;;;;;16.05;5.68;;;15.50;99.90;;;;;;4981848;28;19928;-53
2023/07/03 01:12:40;;;;;;;13.55;5.80;;;15.50;99.90;;;;;;4981889;28;20413;-51
2023/07/03 01:15:09;;;;;;;17.58;6.05;;;15.40;99.90;;;;;;4981047;28;20456;-49
2023/07/03 01:17:38;;;;;;;17.50;5.78;;;15.40;99.90;;;;;;4982234;28;20125;-52
2023/07/03 01:20:05;;;;;;;17.90;5.63;;;15.30;99.90;;;;;;4982176;28;20302;-51
2023/07/03 01:22:36;;;;;;;15.50;5.95;;;15.40;99.90;;;;;;4981564;28;20050;-58
2023/07/03 01:25:08;;;;;;;18.58;6.05;;;15.30;99.90;;;;;;4980410;28;20043;-55
2023/07/03 01:27:38;;;;;;;16.50;6.20;;;15.30;99.90;;;;;;4981863;28;20058;-55
2023/07/03 01:30:07;;;;;;;22.77;6.18;;;15.30;99.90;;;;;;4980480;28;20066;-58
2023/07/03 01:32:35;;;;;;;16.00;5.90;;;15.20;99.90;;;;;;4981646;28;20054;-56
2023/07/03 01:35:03;;;;;;;15.98;6.03;;;15.20;99.90;;;;;;4981490;28;20514;-52
2023/07/03 01:37:31;;;;;;;16.67;6.22;;;16.10;99.90;;;;;;4980769;28;20042;-57
2023/07/03 01:39:59;;;;;;;20.55;6.38;;;15.10;99.90;;;;;;4962604;28;20059;-58
2023/07/03 01:42:28;;;;;;;19.15;6.03;;;15.20;99.90;;;;;;4965629;28;20047;-54
2023/07/03 01:44:54;;;;;;;19.13;6.38;;;15.10;99.90;;;;;;4975844;28;20136;-57
2023/07/03 01:47:20;;;;;;;16.08;6.68;;;15.10;99.90;;;;;;4981999;28;20237;-49
2023/07/03 01:49:47;;;;;;;16.65;6.30;;;15.10;99.90;;;;;;4980163;28;20054;-55
2023/07/03 01:52:21;;;;;;;17.35;6.18;;;15.10;99.90;;;;;;4981111;28;20045;-55
2023/07/03 01:54:56;;;;;;;20.85;6.55;;;15.10;99.90;;;;;;4981573;28;20038;-50
2023/07/03 01:57:42;;;;;;;18.23;6.45;;;15.10;99.90;;;;;;4981809;28;20050;-53
2023/07/03 02:00:13;;;;;;;17.88;6.28;;;15.10;99.90;;;;;;4980659;28;20149;-56
2023/07/03 02:02:43;;;;;;;17.30;5.85;;;15.10;99.90;;;;;;4982202;28;20485;-58
2023/07/03 02:05:16;;;;;;;18.70;6.50;;;15.10;99.90;;;;;;4984620;28;20050;-56
2023/07/03 02:07:43;;;;;;;15.68;5.97;;;15.10;99.90;;;;;;4985624;28;20042;-54
2023/07/03 02:10:09;;;;;;;21.98;6.28;;;15.10;99.90;;;;;;4985218;28;20303;-53
2023/07/03 02:12:35;;;;;;;17.10;6.03;;;15.10;99.90;;;;;;4983704;28;20058;-59
2023/07/03 02:15:03;;;;;;;17.83;5.20;;;15.10;99.90;;;;;;4984675;28;20528;-56
2023/07/03 02:17:29;;;;;;;18.40;5.57;;;15.10;99.90;;;;;;4985389;28;20042;-54
2023/07/03 02:19:55;;;;;;;15.07;4.88;;;15.20;99.90;;;;;;4984446;28;20137;-50
2023/07/03 02:22:21;;;;;;;17.23;4.57;;;15.20;99.90;;;;;;4985377;28;20370;-59
2023/07/03 02:24:46;;;;;;;15.85;4.93;;;15.20;99.90;;;;;;4985105;28;20046;-47
2023/07/03 02:27:12;;;;;;;14.82;4.30;;;15.20;99.90;;;;;;4985386;28;20441;-58
2023/07/03 02:29:38;;;;;;;12.25;4.05;;;15.10;99.90;;;;;;4982266;28;20042;-54
2023/07/03 02:32:12;;;;;;;14.90;4.00;;;15.10;99.90;;;;;;4983974;28;20590;-53
2023/07/03 02:34:38;;;;;;;12.88;4.65;;;15.10;99.90;;;;;;4985020;28;20049;-57
2023/07/03 02:37:04;;;;;;;12.32;3.90;;;15.10;99.90;;;;;;4983807;28;20046;-53
2023/07/03 02:39:31;;;;;;;12.15;4.07;;;14.90;99.90;;;;;;4984939;28;20043;-57
2023/07/03 02:41:56;;;;;;;17.85;4.22;;;14.90;99.90;;;;;;4985390;28;20103;-49
2023/07/03 02:44:22;;;;;;;15.35;3.70;;;14.90;99.90;;;;;;4983902;28;20082;-57
2023/07/03 02:46:48;;;;;;;16.92;4.10;;;14.90;99.90;;;;;;4984807;28;20552;-51
2023/07/03 02:49:14;;;;;;;17.60;4.60;;;14.90;99.90;;;;;;4967393;28;20062;-55
2023/07/03 02:51:40;;;;;;;15.35;4.47;;;14.90;99.90;;;;;;4984738;28;20593;-58
2023/07/03 02:54:05;;;;;;;17.67;4.82;;;14.90;99.90;;;;;;4984446;28;20034;-59
2023/07/03 02:56:31;;;;;;;18.83;5.45;;;14.90;99.90;;;;;;4984495;28;20078;-51
2023/07/03 02:58:57;;;;;;;13.82;5.00;;;14.80;99.90;;;;;;4982716;28;20425;-53
2023/07/03 03:01:22;;;;;;;19.45;5.82;;;14.80;99.90;;;;;;4984280;28;20043;-46
2023/07/03 03:03:48;;;;;;;18.65;5.80;;;14.70;99.90;;;;;;4984603;28;20118;-57
2023/07/03 03:06:14;;;;;;;18.88;5.43;;;14.70;99.90;;;;;;4984726;28;20154;-59
2023/07/03 03:08:39;;;;;;;18.08;5.82;;;14.60;99.90;;;;;;4972201;28;20046;-57
2023/07/03 03:11:06;;;;;;;17.80;6.15;;;14.70;99.90;;;;;;4964221;28;20043;-54
2023/07/03 03:13:31;;;;;;;14.60;5.43;;;14.60;99.90;;;;;;4963849;28;20142;-54
2023/07/03 03:15:58;;;;;;;18.23;5.80;;;14.50;99.90;;;;;;4964554;28;20154;-59
2023/07/03 03:18:23;;;;;;;17.77;6.20;;;14.50;99.90;;;;;;4964033;28;20158;-58
2023/07/03 03:20:50;;;;;;;18.30;5.93;;;14.50;99.90;;;;;;4963227;28;20564;-52
2023/07/03 03:23:15;;;;;;;18.90;5.80;;;14.50;99.90;;;;;;4964659;28;20047;-51
2023/07/03 03:25:42;;;;;;;12.90;4.97;;;14.60;99.90;;;;;;4964759;28;20042;-55
2023/07/03 03:28:09;;;;;;;17.75;5.93;;;14.50;99.90;;;;;;4964321;28;20047;-56
2023/07/03 03:30:34;;;;;;;19.38;6.18;;;14.50;99.90;;;;;;4963746;28;20069;-55
2023/07/03 03:33:00;;;;;;;15.20;4.90;;;14.50;99.90;;;;;;4964397;28;20042;-52
2023/07/03 03:35:26;;;;;;;14.45;4.95;;;14.50;99.90;;;;;;4964096;28;20043;-52
2023/07/03 03:37:51;;;;;;;16.10;4.80;;;14.50;99.90;;;;;;4964706;28;20057;-58
2023/07/03 03:40:17;;;;;;;15.40;4.38;;;14.70;99.90;;;;;;4964177;28;20536;-51
2023/07/03 03:42:42;;;;;;;12.88;3.90;;;14.40;99.90;;;;;;4964695;28;20043;-56
2023/07/03 03:45:08;;;;;;;10.25;3.72;;;14.50;99.90;;;;;;4962793;28;20478;-54
2023/07/03 03:47:34;;;;;;;13.93;4.25;;;14.40;99.90;;;;;;4964284;28;20111;-53
2023/07/03 03:50:00;;;;;;;16.30;4.05;;;14.40;99.90;;;;;;4964657;28;20050;-59
2023/07/03 03:52:26;;;;;;;13.80;3.75;;;14.40;99.90;;;;;;4964059;28;20122;-58
2023/07/03 03:54:52;;;;;;;17.08;4.28;;;14.50;99.90;;;;;;4964031;28;20442;-56
2023/07/03 03:57:17;;;;;;;14.38;4.00;;;14.40;99.90;;;;;;4964105;28;20318;-51
2023/07/03 03:59:43;;;;;;;12.80;3.60;;;14.40;99.90;;;;;;4963448;28;20050;-54
2023/07/03 04:02:09;;;;;;;10.95;3.50;;;14.50;99.90;;;;;;4962137;28;20093;-56
2023/07/03 04:04:34;;;;;;;10.45;3.15;;;14.50;99.90;;;;;;4963745;28;20046;-59
2023/07/03 04:07:01;;;;;;;11.40;3.00;;;14.50;99.90;;;;;;4964318;28;20050;-57
2023/07/03 04:09:27;;;;;;;11.95;3.47;;;14.60;99.90;;;;;;4963399;28;20308;-52
2023/07/03 04:11:53;;;;;;;13.07;3.42;;;14.60;99.90;;;;;;4963739;28;20205;-59
2023/07/03 04:14:18;;;;;;;14.57;3.55;;;14.60;99.90;;;;;;4963411;28;20046;-56
2023/07/03 04:16:46;;;;;;;13.70;3.40;;;14.60;99.90;;;;;;4963960;28;20047;-54
2023/07/03 04:19:12;;;;;;;13.18;3.80;;;14.70;99.90;;;;;;4962923;28;20046;-54
2023/07/03 04:21:39;;;;;;;15.52;4.85;;;14.70;99.90;;;;;;4963312;28;20039;-53
2023/07/03 04:24:05;;;;;;;12.07;4.38;;;14.70;99.90;;;;;;4962418;28;20339;-56
2023/07/03 04:26:31;;;;;;;12.82;3.80;;;14.70;99.90;;;;;;4962523;28;20050;-56
2023/07/03 04:28:58;;;;;;;11.55;4.05;;;14.70;99.90;;;;;;4961723;28;20042;-55
2023/07/03 04:31:24;;;;;;;14.68;4.00;;;14.60;99.90;;;;;;4963539;28;20194;-55
2023/07/03 04:33:49;;;;;;;14.68;3.92;;;14.60;99.90;;;;;;4963497;28;20043;-55
2023/07/03 04:36:20;;;;;;;16.45;4.25;;;14.60;99.90;;;;;;4962696;28;20038;-57
2023/07/03 04:38:46;;;;;;;14.48;4.18;;;14.60;99.90;;;;;;4962773;28;20631;-52
2023/07/03 04:41:12;;;;;;;17.63;4.15;;;14.60;99.90;;;;;;4963063;28;20050;-56
2023/07/03 04:43:44;;;;;;;14.50;3.65;;;14.70;99.90;;;;;;4962104;28;20050;-58
2023/07/03 04:46:10;;;;;;;12.98;3.33;;;14.80;99.90;;;;;;4962786;28;20473;-52
2023/07/03 04:48:36;;;;;;;13.27;3.78;;;14.80;99.90;;;;;;4963352;28;20054;-59
2023/07/03 04:51:03;;;;;;;12.82;3.05;;;14.80;99.90;;;;;;4961583;28;20446;-57
2023/07/03 04:53:31;;;;;;;14.27;3.35;;;14.90;99.90;;;;;;4963156;28;20064;-53
2023/07/03 04:55:57;;;;;;;10.73;2.72;;;14.90;99.90;;;;;;4963026;28;20051;-54
2023/07/03 04:58:23;;;;;;;13.73;2.80;;;15.30;99.90;;;;;;4960368;28;20304;-58
2023/07/03 05:00:48;;;;;;;11.43;2.88;;;15.60;99.90;;;;;;4962025;28;20050;-58
2023/07/03 05:03:14;;;;;;;9.63;2.80;;;16.00;99.90;;;;;;4962811;28;20531;-55
2023/07/03 05:05:40;;;;;;;13.63;3.00;;;16.20;99.90;;;;;;4962454;28;20246;-52
2023/07/03 05:08:06;;;;;;;11.63;2.50;;;16.30;99.90;;;;;;4961588;28;20053;-56
2023/07/03 05:10:31;;;;;;;10.32;2.47;;;16.30;99.90;;;;;;4963125;28;20065;-50
2023/07/03 05:12:57;;;;;;;9.85;2.63;;;16.40;99.90;;;;;;4962714;28;20050;-57
2023/07/03 05:15:24;;;;;;;12.32;2.47;;;16.30;99.90;;;;;;4961673;28;20461;-49
2023/07/03 05:17:51;;;;;;;12.02;2.78;;;16.10;99.90;;;;;;4962601;28;20379;-55
2023/07/03 05:20:18;;;;;;;7.93;2.28;;;16.00;99.90;;;;;;4962648;28;20513;-59
2023/07/03 05:22:44;;;;;;;11.65;2.60;;;16.10;99.90;;;;;;4962748;28;20137;-59
2023/07/03 05:25:12;;;;;;;8.52;2.28;;;16.30;99.90;;;;;;4962015;28;20457;-54
2023/07/03 05:27:38;;;;;;;11.55;2.47;;;16.50;99.90;;;;;;4962649;28;20189;-56
2023/07/03 05:30:06;;;;;;;10.82;2.55;;;16.70;99.90;;;;;;4962558;28;20038;-60
2023/07/03 05:32:33;;;;;;;10.05;2.88;;;16.80;99.90;;;;;;4961971;28;20130;-56
2023/07/03 05:34:59;;;;;;;11.00;2.50;;;17.00;99.90;;;;;;4972911;28;20061;-53
2023/07/03 05:37:25;;;;;;;11.57;2.42;;;17.20;99.90;;;;;;4962360;28;20038;-59
2023/07/03 05:39:51;;;;;;;10.40;2.15;;;17.50;99.90;;;;;;4962300;28;20043;-46
2023/07/03 05:42:17;;;;;;;9.77;2.47;;;17.60;99.90;;;;;;4980209;28;20061;-59
2023/07/03 05:44:44;;;;;;;11.88;2.75;;;17.60;99.80;;;;;;4980845;28;20108;-53
2023/07/03 05:47:10;;;;;;;8.88;2.53;;;17.70;99.70;;;;;;4981705;28;20719;-54
2023/07/03 05:49:36;;;;;;;8.90;2.10;;;17.90;99.30;;;;;;4981174;28;20049;-58
2023/07/03 05:52:01;;;;;;;12.40;2.42;;;18.10;98.90;;;;;;4980447;28;20420;-59
2023/07/03 05:54:27;;;;;;;11.90;2.25;;;18.30;98.40;;;;;;4981795;28;20065;-54
2023/07/03 05:57:00;;;;;;;12.18;2.70;;;18.40;98.30;;;;;;4980852;28;20456;-50
2023/07/03 05:59:26;;;;;;;8.60;1.80;;;18.60;98.00;;;;;;4981357;28;20452;-59
2023/07/03 06:01:56;;;;;;;9.48;2.50;;;18.70;97.80;;;;;;4981506;28;20057;-46
2023/07/03 06:04:22;;;;;;;9.48;1.98;;;18.50;97.80;;;;;;4971233;28;20042;-58
2023/07/03 06:06:57;;;;;;;10.27;2.50;;;18.00;98.60;;;;;;4962189;28;20054;-59
2023/07/03 06:09:24;;;;;;;10.18;2.80;;;17.60;99.20;;;;;;4961865;28;20409;-47
2023/07/03 06:11:49;;;;;;;10.02;2.30;;;17.50;99.60;;;;;;4961319;28;20426;-58
2023/07/03 06:14:17;;;;;;;11.60;2.22;;;17.30;99.90;;;;;;4961324;28;20047;-56
2023/07/03 06:16:48;;;;;;;9.15;2.17;;;17.00;99.90;;;;;;4962067;28;20102;-54
2023/07/03 06:19:15;;;;;;;14.95;2.83;;;16.70;99.90;;;;;;4961292;28;20054;-57
2023/07/03 06:21:41;;;;;;;11.20;2.85;;;16.60;99.90;;;;;;4961877;28;20561;-52
2023/07/03 06:24:12;;;;;;;12.00;2.30;;;16.60;99.90;;;;;;4961991;28;20069;-55
2023/07/03 06:26:39;;;;;;;9.27;2.47;;;16.50;99.90;;;;;;4962160;28;20450;-53
2023/07/03 06:29:06;;;;;;;14.23;2.92;;;16.30;99.90;;;;;;4961305;28;20294;-46
2023/07/03 06:31:32;;;;;;;15.40;2.65;;;16.20;99.90;;;;;;4965207;28;20098;-58
2023/07/03 06:33:57;;;;;;;11.25;2.47;;;16.00;99.90;;;;;;4969299;28;20085;-60
2023/07/03 06:36:24;;;;;;;9.65;2.70;;;15.80;99.90;;;;;;4960189;28;20133;-61
2023/07/03 06:38:58;;;;;;;11.10;2.40;;;15.60;99.90;;;;;;4962162;28;20050;-54
2023/07/03 06:41:28;;;;;;;13.48;3.25;;;15.60;99.90;;;;;;4961895;28;20149;-57
2023/07/03 06:43:56;;;;;;;12.32;2.50;;;15.40;99.90;;;;;;4960215;28;20046;-51
2023/07/03 06:46:22;;;;;;;14.02;3.35;;;15.40;99.90;;;;;;4961418;28;20217;-59
2023/07/03 06:48:47;;;;;;;12.32;2.90;;;15.30;99.90;;;;;;4963158;28;20049;-60
2023/07/03 06:51:13;;;;;;;9.30;2.42;;;15.80;99.90;;;;;;4965683;28;20401;-54
2023/07/03 06:53:40;;;;;;;11.38;2.22;;;16.80;99.90;;;;;;4984872;28;20061;-52
2023/07/03 06:56:07;;;;;;;7.50;2.10;;;17.50;99.90;;;;;;4984428;28;20306;-58
2023/07/03 06:58:33;;;;;;;11.57;2.55;;;18.00;99.90;;;;;;4981876;28;21074;-57
2023/07/03 07:01:09;;;;;;;11.90;2.30;;;18.00;99.90;;;;;;4981563;28;20042;-55
2023/07/03 07:03:35;;;;;;;11.20;2.70;;;17.70;99.90;;;;;;4984411;28;20047;-57
2023/07/03 07:06:11;;;;;;;9.88;2.65;;;17.40;99.90;;;;;;4984178;28;20058;-54
2023/07/03 07:08:37;;;;;;;13.30;2.35;;;17.20;99.90;;;;;;4984749;28;20050;-59
2023/07/03 07:11:06;;;;;;;10.20;2.58;;;17.00;99.90;;;;;;4984128;28;20038;-53
2023/07/03 07:13:32;;;;;;;10.75;2.60;;;16.80;99.90;;;;;;4983232;28;20061;-59
2023/07/03 07:15:57;;;;;;;6.00;1.83;;;16.70;99.90;;;;;;4982060;28;20043;-47
2023/07/03 07:18:23;;;;;;;7.20;1.27;;;16.60;99.90;;;;;;4984268;28;20057;-63
2023/07/03 07:20:48;;;;;;;4.95;1.50;;;16.20;99.90;;;;;;4984343;28;20140;-54
2023/07/03 07:23:14;;;;;;;6.50;1.80;;;15.90;99.90;;;;;;4983085;28;20614;-52
2023/07/03 07:25:39;;;;;;;6.40;1.90;;;15.70;99.90;;;;;;4984012;28;20191;-55
2023/07/03 07:28:05;;;;;;;8.65;2.40;;;15.40;99.90;;;;;;4976788;28;20059;-48
2023/07/03 07:30:31;;;;;;;8.00;2.00;;;15.30;99.90;;;;;;4969812;28;20129;-56
2023/07/03 07:32:57;;;;;;;11.20;2.50;;;15.30;99.90;;;;;;4964490;28;20173;-48
2023/07/03 07:35:23;;;;;;;10.20;2.80;;;15.40;99.90;;;;;;4964552;28;20054;-52
2023/07/03 07:37:49;;;;;;;9.95;2.90;;;15.50;99.90;;;;;;4964531;28;20053;-57
2023/07/03 07:40:16;;;;;;;13.15;3.10;;;16.00;99.90;;;;;;4963789;28;20125;-58
2023/07/03 07:42:41;;;;;;;12.73;2.50;;;16.20;99.90;;;;;;4965250;28;20035;-56
2023/07/03 07:45:07;;;;;;;9.32;2.50;;;16.30;99.90;;;;;;4976768;28;20046;-53
2023/07/03 07:47:33;;;;;;;9.15;2.40;;;16.40;99.90;;;;;;4983111;28;20088;-54
2023/07/03 07:49:58;;;;;;;8.65;2.00;;;16.50;99.90;;;;;;4983887;28;20432;-59
2023/07/03 07:52:25;;;;;;;7.53;2.15;;;16.40;99.90;;;;;;4984228;28;20038;-57
2023/07/03 07:54:55;;;;;;;7.55;2.08;;;16.40;99.90;;;;;;4983392;28;20405;-54
2023/07/03 07:57:21;;;;;;;7.57;2.33;;;16.30;99.90;;;;;;4971729;28;20270;-58
2023/07/03 07:59:46;;;;;;;9.88;2.20;;;16.30;99.90;;;;;;4971342;28;20121;-48
2023/07/03 08:02:12;;;;;;;13.00;2.75;;;16.30;99.90;;;;;;4976056;28;20043;-60
2023/07/03 08:04:37;;;;;;;8.15;2.97;;;16.30;99.90;;;;;;4982706;28;20549;-56
2023/07/03 08:07:03;;;;;;;10.85;2.85;;;16.30;99.90;;;;;;4983050;28;20054;-52
2023/07/03 08:09:29;;;;;;;8.85;2.55;;;16.40;99.90;;;;;;4982953;28;20176;-55
2023/07/03 08:11:54;;;;;;;11.05;2.83;;;16.40;99.90;;;;;;4983270;28;20070;-53
2023/07/03 08:14:20;;;;;;;12.02;3.00;;;16.30;99.90;;;;;;4982167;28;20517;-60
2023/07/03 08:16:46;;;;;;;10.43;2.67;;;16.40;99.90;;;;;;4983274;28;20397;-52
2023/07/03 08:19:11;;;;;;;13.48;2.95;;;16.30;99.90;;;;;;4982162;28;20113;-53
2023/07/03 08:21:37;;;;;;;10.43;2.40;;;16.40;99.90;;;;;;4982409;28;20444;-55
2023/07/03 08:24:03;;;;;;;10.90;2.53;;;16.50;99.90;;;;;;4982840;28;20243;-54
2023/07/03 08:26:28;;;;;;;9.88;2.50;;;16.50;99.90;;;;;;4983146;28;20049;-57
2023/07/03 08:28:54;;;;;;;9.43;2.17;;;16.50;99.90;;;;;;4982259;28;20410;-50
2023/07/03 08:31:20;;;;;;;10.10;2.53;;;16.60;99.90;;;;;;4982227;28;20066;-53
2023/07/03 08:33:45;;;;;;;11.15;2.58;;;16.60;99.90;;;;;;4982809;28;20043;-49
2023/07/03 08:36:11;;;;;;;6.78;2.00;;;16.50;99.90;;;;;;4977919;28;20482;-60
2023/07/03 08:38:37;;;;;;;6.40;1.70;;;16.60;99.90;;;;;;4979965;28;20034;-58
2023/07/03 08:41:02;;;;;;;6.15;1.52;;;16.60;99.90;;;;;;4982985;28;20054;-57
2023/07/03 08:43:34;;;;;;;8.88;1.77;;;16.50;99.90;;;;;;4982353;28;20045;-54
2023/07/03 08:46:02;;;;;;;9.00;1.70;;;16.60;99.90;;;;;;4971166;28;20051;-46
2023/07/03 08:48:32;;;;;;;8.45;1.98;;;16.50;99.90;;;;;;4961890;28;20043;-51
2023/07/03 08:51:02;;;;;;;7.28;1.40;;;16.50;99.90;;;;;;4961919;28;20133;-46
2023/07/03 08:53:34;;;;;;;7.32;1.77;;;16.60;99.90;;;;;;4963022;28;20047;-55
2023/07/03 08:56:11;;;;;;;7.50;1.85;;;16.70;99.90;;;;;;4963271;28;20030;-58
2023/07/03 08:58:36;;;;;;;7.30;1.60;;;16.80;99.90;;;;;;4962507;28;20062;-59
2023/07/03 09:01:11;;;;;;;8.20;1.58;;;16.90;99.90;;;;;;4963601;28;20035;-56
2023/07/03 09:03:50;;;;;;;6.15;1.58;;;17.30;99.90;;;;;;4966175;28;20349;-57
2023/07/03 09:06:24;;;;;;;9.27;1.63;;;17.60;99.90;;;;;;4981785;28;20077;-60
2023/07/03 09:08:55;;;;;;;5.53;1.50;;;17.90;99.90;;;;;;4970270;28;20122;-53
2023/07/03 09:11:23;;;;;;;6.13;1.77;;;17.90;99.90;;;;;;4971044;28;20178;-59
2023/07/03 09:13:52;;;;;;;8.20;1.70;;;17.90;99.90;;;;;;4961839;28;20130;-51
2023/07/03 09:16:22;;;;;;;8.10;2.03;;;17.80;99.90;;;;;;4963183;28;20097;-57
2023/07/03 09:18:53;;;;;;;7.30;1.52;;;17.60;99.90;;;;;;4965403;28;20069;-54
2023/07/03 09:21:21;;;;;;;6.60;1.67;;;17.60;99.90;;;;;;4973514;28;20038;-57
2023/07/03 09:24:17;;;;;;;5.35;1.35;;;17.90;99.90;;;;;;4982483;28;20046;-56
2023/07/03 09:26:55;;;;;;;7.13;1.35;;;18.20;99.90;;;;;;4972152;28;20062;-55
2023/07/03 09:29:21;;;;;;;9.95;1.40;;;18.50;99.90;;;;;;4981332;28;20194;-59
2023/07/03 09:31:47;;;;;;;6.57;1.30;;;18.40;98.20;;;;;;4981729;28;20042;-50
2023/07/03 09:34:12;;;;;;;8.43;1.60;;;18.20;98.10;;;;;;4981908;28;20199;-52
2023/07/03 09:36:41;;;;;;;8.95;1.77;;;18.10;98.90;;;;;;4982109;28;20096;-54
2023/07/03 09:39:14;;;;;;;10.93;1.80;;;18.00;98.90;;;;;;4981744;28;20402;-58
2023/07/03 09:41:41;;;;;;;7.60;2.13;;;17.90;99.90;;;;;;4980663;28;20491;-58
2023/07/03 09:44:14;;;;;;;10.93;1.70;;;17.50;99.90;;;;;;4981133;28;20034;-53
2023/07/03 09:46:41;;;;;;;10.18;2.00;;;17.20;99.90;;;;;;4981175;28;20046;-55
2023/07/03 09:49:28;;;;;;;9.35;2.10;;;16.80;99.90;;;;;;4981651;28;20043;-49
2023/07/03 09:51:56;;;;;;;8.20;2.20;;;16.50;99.90;;;;;;4981652;28;20074;-54
2023/07/03 09:54:27;;;;;;;9.23;1.85;;;16.40;99.90;;;;;;4979943;28;20047;-59
2023/07/03 09:56:54;;;;;;;8.85;1.60;;;16.40;99.90;;;;;;4971611;28;20069;-52
2023/07/03 09:59:22;;;;;;;8.85;1.92;;;16.70;99.90;;;;;;4972678;28;20043;-56
2023/07/03 10:01:53;;;;;;;11.38;1.60;;;16.90;99.90;;;;;;4962436;28;20051;-58
2023/07/03 10:04:19;;;;;;;4.63;1.73;;;17.40;99.90;;;;;;4962569;28;20443;-55
2023/07/03 10:07:04;;;;;;;5.35;1.50;;;18.00;99.90;;;;;;4962103;28;20126;-57
2023/07/03 10:09:41;;;;;;;4.82;1.50;;;18.40;99.90;;;;;;4969614;28;20046;-56
2023/07/03 10:12:31;;;;;;;8.45;1.25;;;18.50;99.90;;;;;;4972016;28;20046;-57
2023/07/03 10:15:06;;;;;;;4.68;1.02;;;18.40;99.90;;;;;;4970780;28;20122;-59
2023/07/03 10:17:36;;;;;;;4.10;1.10;;;18.20;99.90;;;;;;4971360;28;20285;-59
2023/07/03 10:20:09;;;;;;;5.55;1.20;;;17.90;98.90;;;;;;4966156;28;20068;-58
2023/07/03 10:22:37;;;;;;;4.10;0.80;;;17.80;98.00;;;;;;4981252;28;20051;-62
2023/07/03 10:25:08;;;;;;;3.45;0.88;;;17.60;99.00;;;;;;4983874;28;20050;-57
2023/07/03 10:27:36;;;;;;;5.88;1.58;;;17.60;99.80;;;;;;4972974;28;20047;-60
2023/07/03 10:30:05;;;;;;;3.50;1.00;;;17.60;99.00;;;;;;4983207;28;20038;-61
2023/07/03 10:32:33;;;;;;;4.50;1.08;;;17.70;99.50;;;;;;4973301;28;20054;-53
2023/07/03 10:35:10;;;;;;;2.78;0.90;;;17.80;99.90;;;;;;4965672;28;20054;-59
2023/07/03 10:37:50;;;;;;;4.30;1.10;;;18.00;99.70;;;;;;4965625;28;20255;-58
2023/07/03 10:40:27;;;;;;;4.85;1.58;;;18.10;99.90;;;;;;4972868;28;20044;-56
2023/07/03 10:42:57;;;;;;;5.80;1.10;;;18.20;99.90;;;;;;4973635;28;20089;-57
2023/07/03 10:45:24;;;;;;;3.65;1.30;;;18.30;99.90;;;;;;4976834;28;20074;-58
2023/07/03 10:48:01;;;;;;;3.75;1.23;;;18.20;99.80;;;;;;4965751;28;20125;-53
2023/07/03 10:50:50;;;;;;;5.80;1.45;;;18.00;99.90;;;;;;4977357;28;20046;-55
2023/07/03 10:53:28;;;;;;;4.13;1.60;;;17.70;99.90;;;;;;4965991;28;20074;-53
2023/07/03 10:56:17;;;;;;;4.40;1.20;;;17.40;99.90;;;;;;4971608;28;20382;-47
2023/07/03 10:58:54;;;;;;;3.50;0.90;;;17.20;99.90;;;;;;4964032;28;20047;-54
2023/07/03 11:01:39;;;;;;;4.55;1.05;;;17.00;99.90;;;;;;4973172;28;20282;-54
2023/07/03 11:04:18;;;;;;;1.95;0.90;;;16.90;99.60;;;;;;4983477;28;20038;-54
2023/07/03 11:07:07;;;;;;;3.75;0.90;;;16.80;99.90;;;;;;4984474;28;20058;-54
2023/07/03 11:09:46;;;;;;;5.68;1.10;;;16.90;99.80;;;;;;4984262;28;20770;-60
2023/07/03 11:12:33;;;;;;;4.65;1.20;;;17.20;99.90;;;;;;4977437;28;20438;-55
2023/07/03 11:15:13;;;;;;;3.15;1.10;;;17.50;99.90;;;;;;4972519;28;20051;-53
2023/07/03 11:17:55;;;;;;;3.65;1.08;;;18.00;99.90;;;;;;4974452;28;20133;-52
2023/07/03 11:20:28;;;;;;;4.28;1.10;;;18.50;99.50;;;;;;4973143;28;20039;-53
2023/07/03 11:23:20;;;;;;;5.70;1.38;;;18.90;99.10;;;;;;4984660;28;20442;-54
2023/07/03 11:26:24;;;;;;;6.15;1.38;;;19.30;99.40;;;;;;4983524;28;20046;-59
2023/07/03 11:28:53;;;;;;;10.65;1.20;;;19.50;99.00;;;;;;4976672;28;20322;-58
2023/07/03 11:31:19;;;;;;;7.28;1.58;;;19.70;98.50;;;;;;4975433;28;20046;-58
2023/07/03 11:33:46;;;;;;;6.43;1.50;;;19.80;98.20;;;;;;4977039;28;20051;-48
2023/07/03 11:36:35;;;;;;;7.25;1.25;;;19.70;96.60;;;;;;4964173;28;20039;-54
2023/07/03 11:39:15;;;;;;;4.07;1.20;;;19.70;95.60;;;;;;4964806;28;20097;-53
2023/07/03 11:41:50;;;;;;;4.40;1.10;;;19.40;95.90;;;;;;4963738;28;20050;-51
2023/07/03 11:44:31;;;;;;;5.40;1.33;;;19.20;95.80;;;;;;4963701;28;20035;-57
2023/07/03 11:47:04;;;;;;;5.53;1.38;;;19.10;96.20;;;;;;4963548;28;20066;-52
2023/07/03 11:49:32;;;;;;;7.13;1.80;;;19.00;96.90;;;;;;4964419;28;20190;-59
2023/07/03 11:52:01;;;;;;;6.57;1.73;;;18.80;97.90;;;;;;4963869;28;20050;-54
2023/07/03 11:54:28;;;;;;;6.10;1.70;;;18.60;98.60;;;;;;4963718;28;20089;-57
2023/07/03 11:57:07;;;;;;;3.38;1.30;;;18.40;99.10;;;;;;4970952;28;20145;-60
2023/07/03 11:59:36;;;;;;;5.63;0.75;;;18.30;97.70;;;;;;4966952;28;20042;-48
2023/07/03 12:02:11;;;;;;;2.13;0.93;;;18.20;95.10;;;;;;4964021;28;20042;-54
2023/07/03 12:04:42;;;;;;;;;;;18.30;94.70;;;;;;4964255;28;20130;-52
2023/07/03 12:07:09;;;;;;;4.95;1.20;;;18.30;94.40;;;;;;4963467;28;20013;-58
2023/07/03 12:09:35;;;;;;;7.63;1.27;;;18.40;94.00;;;;;;4963777;28;20250;-59
2023/07/03 12:12:00;;;;;;;3.58;1.08;;;18.50;94.00;;;;;;4962917;28;20050;-52
2023/07/03 12:17:33;;;;;;;4.32;1.23;;;18.80;94.50;;;;;;4963866;28;20507;-54
2023/07/03 12:20:06;;;;;;;4.50;0.90;;;19.10;93.80;;;;;;4963058;28;20078;-54
2023/07/03 12:22:44;;;;;;;4.20;1.10;;;19.10;92.90;;;;;;4965057;28;20051;-55
2023/07/03 12:25:20;;;;;;;5.00;1.00;;;19.00;92.20;;;;;;4982240;28;20195;-59
2023/07/03 12:27:47;;;;;;;5.57;1.05;;;18.70;92.20;;;;;;4982138;28;20042;-58
2023/07/03 12:30:23;;;;;;;5.40;0.90;;;18.50;92.00;;;;;;4982924;28;20042;-54
2023/07/03 12:32:49;;;;;;;1.92;0.70;;;18.40;92.10;;;;;;4981052;28;20519;-51
2023/07/03 12:35:24;;;;;;;3.55;0.90;;;18.20;92.60;;;;;;4982455;28;20122;-52
2023/07/03 12:37:53;;;;;;;4.70;1.08;;;18.00;92.90;;;;;;4982676;28;20100;-57
2023/07/03 12:40:20;;;;;;;5.25;1.20;;;18.00;93.00;;;;;;4982491;28;20034;-54
2023/07/03 12:42:52;;;;;;;4.32;0.98;;;17.90;93.20;;;;;;4982074;28;20051;-60
2023/07/03 12:45:21;;;;;;;7.38;1.02;;;17.70;93.80;;;;;;4982588;28;20345;-52
2023/07/03 12:48:11;;;;;;;5.85;1.08;;;17.70;94.10;;;;;;4947145;28;20528;-56
2023/07/03 12:50:52;;;;;;;3.00;0.90;;;17.70;94.30;;;;;;4969480;28;20093;-55
2023/07/03 12:53:18;;;;;;;4.30;0.98;;;17.80;94.70;;;;;;4982789;28;20720;-58